Prestwick Rnas, United Kingdom

6:52 PM BST on September 18, 2014 (GMT +0100)
Prestwick | Change Station
CLOSE
Current Station
Airport
Location: Prestwick,
Elevation: 66 ft
Nearby Weather Stations

Elev 66 ft 55.51 °N, 4.59 °W | Updated 32 minutes ago

Partly Cloudy
Partly Cloudy
68 °F
Feels Like 68 °F
N
6
Wind Variable Wind from East

Today
High -- | Low -- °F
--% Chance of Precip.
Yesterday
High -- | Low -- °F
Precip. -- in
6:55 AM 7:28 PM
Waning Crescent, 25% visible
Pressure 29.89 in
Visibility 6.2 miles
Clouds Few 3500 ft
Dew Point 59 °F
Humidity 73%
Rainfall 0.00 in
Snow Depth Not available.
UV 0 out of 12
Pollen Not available.
Air Quality Not available.
Flu Activity Not available.
METAR EGPK 181720Z 10005KT 9999 FEW035 20/15 Q1012

More Conditions Fewer Conditions

Pressure 29.89 in
Visibility 6.2 miles
Clouds Few 3500 ft
Dew Point 59 °F
Humidity 73%
Rainfall 0.00 in
Snow Depth Not available.
UV 0 out of 12
Pollen Not available.
Air Quality Not available.
Flu Activity Not available.
METAR EGPK 181720Z 10005KT 9999 FEW035 20/15 Q1012

More Conditions Fewer Conditions

10-Day Weather Forecast

Almanac

Astronomy

Sep. 18, 2014 Rise Set
Actual Time 6:55 AM BST 7:28 PM BST
Civil Twilight 6:18 AM BST 8:04 PM BST
Nautical Twilight 5:34 AM BST 8:49 PM BST
Astronomical Twilight 4:46 AM BST 9:36 PM BST
Moon 12:53 AM BST 4:48 PM BST
Length of Visible Light 13h 46m
Length of Day
12h 32m
Tomorrow will be 4m 31s shorter.
Waning Crescent, 25% of the Moon is Illuminated
Today
Waning Crescent
Sep 24
New
Oct 1
First Quarter
Oct 8
Full
Oct 15
Last Quarter

Today's Extremes

Country Highs Country Lows

Community

WunderPhotos

Upload Photos

1,754,409 photos uploaded!

Nearby

Snow Depth

Not available.

Earthquake Activity

City Distance Mag. Time & Date
No recent earthquake activity has been reported nearby.
Minimum magnitude displayed is 2.5.

Coastal Water Temperatures

Place Temperature
No Stations Reporting

Nearby Weather Stations